Red Bay, Florida
Current Conditions -  °F | °C
As of 11:35 PM on Thursday 27 Nov 2014 (Local Time) from K54J Reporting Station
Clear Clear  
Wind Chill: 31°   Ceiling: Unl
Heat Index: 38°   Visibility: 10mi
Dew Point: 32°   Wind: 9mph
Humidity: 80%   Direction: 360°N
Pressure: 30.41"   Gusts: NA
Location:  30.678°N, 85.9545°W
Report Text: K54J 280535Z AUTO 36008KT 10SM CLR 03/00 A3041 RMK AO2 T00320000
Loading
Personal Weather Stations






























Interactive Weather Map New forecast layout! Learn more

10-Day Weather Forecast

Advertisements
Track Severe Weather on mobile